^^
Grace C. Lehan Memorial Weather Station Historical Data
Daily Summary for January 30, 2022 Units:  Both    English   Metric
Daily Weekly Monthly Yearly
  High: Low: Average:
Temperature: 25.5 °F /  -3.6 °C 6.7 °F /  -14.1 °C 16.2 °F /  -8.8 °C
Dew Point: 7.7 °F /  -13.5 °C -2.9 °F /  -19.4 °C 2.3 °F /  -16.5 °C
Humidity: 67.9% 41.2% 55%
Wind Speed: 12.9mph /  20.8km/h - 3.7mph /  6km/h
Wind Gust: 23mph /  37km/h - -
Wind- - WNW
Pressure: 30.17 in /  1021.6 hPa 29.69 in /  1005.3 hPa -
Precipitation: 0.00 in /  0 mm    
 
 
Tabular Data for January 30, 2022
Time Temperature Dew Point Pressure Wind Wind Speed Wind Gust Humidity Rainfall Rate (Hourly) solar
00:04 10.1 °F /  -12.2 °C 0 °F /  -17.8 °C 29.70in /  1005.6hPa WNW 8.1mph /  13km/h 17mph /  27.4km/h 63% 0.00in /  0mm 0 W/m2
00:09 10 °F /  -12.2 °C -0.1 °F /  -17.8 °C 29.69in /  1005.3hPa NW 7.1mph /  11.4km/h 16mph /  25.7km/h 63% 0.00in /  0mm 0 W/m2
00:14 9.9 °F /  -12.3 °C -0.1 °F /  -17.8 °C 29.70in /  1005.6hPa WNW 6.7mph /  10.8km/h 16mph /  25.7km/h 63% 0.00in /  0mm 0 W/m2
00:19 9.9 °F /  -12.3 °C -0.2 °F /  -17.9 °C 29.70in /  1005.6hPa NW 6.3mph /  10.1km/h 16mph /  25.7km/h 63% 0.00in /  0mm 0 W/m2
00:24 9.9 °F /  -12.3 °C -0.4 °F /  -18 °C 29.70in /  1005.6hPa NW 7.3mph /  11.7km/h 16mph /  25.7km/h 62.5% 0.00in /  0mm 0 W/m2
00:29 9.8 °F /  -12.3 °C -0.6 °F /  -18.1 °C 29.70in /  1005.6hPa NW 6.7mph /  10.8km/h 16mph /  25.7km/h 62% 0.00in /  0mm 0 W/m2
00:34 9.8 °F /  -12.3 °C -0.7 °F /  -18.2 °C 29.71in /  1006hPa NW 7.6mph /  12.2km/h 16mph /  25.7km/h 61.6% 0.00in /  0mm 0 W/m2
00:39 9.7 °F /  -12.4 °C -0.7 °F /  -18.2 °C 29.71in /  1006hPa NW 5.1mph /  8.2km/h 14mph /  22.5km/h 62.1% 0.00in /  0mm 0 W/m2
00:44 9.6 °F /  -12.4 °C -0.5 °F /  -18.1 °C 29.71in /  1006hPa NW 4.3mph /  6.9km/h 14mph /  22.5km/h 62.8% 0.00in /  0mm 0 W/m2
00:49 9.5 °F /  -12.5 °C -0.6 °F /  -18.1 °C 29.71in /  1006hPa NW 4.8mph /  7.7km/h 17mph /  27.4km/h 63% 0.00in /  0mm 0 W/m2
00:54 9.4 °F /  -12.6 °C -0.7 °F /  -18.2 °C 29.71in /  1006hPa NW 6.9mph /  11.1km/h 17mph /  27.4km/h 63% 0.00in /  0mm 0 W/m2
00:59 9.3 °F /  -12.6 °C -0.6 °F /  -18.1 °C 29.71in /  1006hPa NW 4.9mph /  7.9km/h 17mph /  27.4km/h 63.5% 0.00in /  0mm 0 W/m2
01:04 9.2 °F /  -12.7 °C -0.9 °F /  -18.3 °C 29.71in /  1006hPa NW 8.3mph /  13.4km/h 17mph /  27.4km/h 62.7% 0.00in /  0mm 0 W/m2
01:09 9.2 °F /  -12.7 °C -1 °F /  -18.3 °C 29.71in /  1006hPa NW 6.6mph /  10.6km/h 16mph /  25.7km/h 62.4% 0.00in /  0mm 0 W/m2
01:14 9.2 °F /  -12.7 °C -0.9 °F /  -18.3 °C 29.71in /  1006hPa WNW 5.1mph /  8.2km/h 16mph /  25.7km/h 62.6% 0.00in /  0mm 0 W/m2
01:19 9.2 °F /  -12.7 °C -0.9 °F /  -18.3 °C 29.71in /  1006hPa NW 3.5mph /  5.6km/h 16mph /  25.7km/h 62.9% 0.00in /  0mm 0 W/m2
01:24 9.2 °F /  -12.7 °C -0.8 °F /  -18.2 °C 29.71in /  1006hPa NW 3.4mph /  5.5km/h 16mph /  25.7km/h 63% 0.00in /  0mm 0 W/m2
01:29 9.1 °F /  -12.7 °C -0.7 °F /  -18.2 °C 29.71in /  1006hPa NNW 1.9mph /  3.1km/h 16mph /  25.7km/h 63.7% 0.00in /  0mm 0 W/m2
01:34 9.1 °F /  -12.7 °C -0.6 °F /  -18.1 °C 29.71in /  1006hPa NW 4.2mph /  6.8km/h 16mph /  25.7km/h 63.8% 0.00in /  0mm 0 W/m2
01:39 9.1 °F /  -12.7 °C -0.8 °F /  -18.2 °C 29.72in /  1006.3hPa WNW 7.5mph /  12.1km/h 19mph /  30.6km/h 63.2% 0.00in /  0mm 0 W/m2
01:44 9.2 °F /  -12.7 °C -0.8 °F /  -18.2 °C 29.71in /  1006hPa NW 4.5mph /  7.2km/h 19mph /  30.6km/h 63% 0.00in /  0mm 0 W/m2
01:49 9.3 °F /  -12.6 °C -0.7 °F /  -18.2 °C 29.71in /  1006hPa NNW 6mph /  9.7km/h 19mph /  30.6km/h 63% 0.00in /  0mm 0 W/m2
01:54 9.3 °F /  -12.6 °C -1 °F /  -18.3 °C 29.71in /  1006hPa NW 3mph /  4.8km/h 19mph /  30.6km/h 62.3% 0.00in /  0mm 0 W/m2
01:59 9.2 °F /  -12.7 °C -1 °F /  -18.3 °C 29.71in /  1006hPa NW 3.3mph /  5.3km/h 19mph /  30.6km/h 62.5% 0.00in /  0mm 0 W/m2
02:04 9.2 °F /  -12.7 °C -0.8 °F /  -18.2 °C 29.72in /  1006.3hPa NW 1.3mph /  2.1km/h 19mph /  30.6km/h 63% 0.00in /  0mm 0 W/m2
02:09 9.2 °F /  -12.7 °C -0.7 °F /  -18.2 °C 29.72in /  1006.3hPa NNW 4.2mph /  6.8km/h 12mph /  19.3km/h 63.3% 0.00in /  0mm 0 W/m2
02:14 9.2 °F /  -12.7 °C -0.7 °F /  -18.2 °C 29.72in /  1006.3hPa NNW 3.1mph /  5km/h 12mph /  19.3km/h 63.3% 0.00in /  0mm 0 W/m2
02:19 9.2 °F /  -12.7 °C -1 °F /  -18.3 °C 29.72in /  1006.3hPa NW 2.1mph /  3.4km/h 12mph /  19.3km/h 62.5% 0.00in /  0mm 0 W/m2
02:24 9.3 °F /  -12.6 °C -1.1 °F /  -18.4 °C 29.72in /  1006.3hPa NNW 5.5mph /  8.9km/h 13mph /  20.9km/h 62.1% 0.00in /  0mm 0 W/m2
02:29 9.4 °F /  -12.6 °C -1.2 °F /  -18.4 °C 29.72in /  1006.3hPa NW 1.6mph /  2.6km/h 13mph /  20.9km/h 61.4% 0.00in /  0mm 0 W/m2
02:34 9.4 °F /  -12.6 °C -1 °F /  -18.3 °C 29.72in /  1006.3hPa NW 3.7mph /  6km/h 13mph /  20.9km/h 62% 0.00in /  0mm 0 W/m2
02:39 9.4 °F /  -12.6 °C -1 °F /  -18.3 °C 29.73in /  1006.7hPa NW 2.5mph /  4km/h 10mph /  16.1km/h 62% 0.00in /  0mm 0 W/m2
02:44 9.5 °F /  -12.5 °C -0.9 °F /  -18.3 °C 29.73in /  1006.7hPa NNW 1.8mph /  2.9km/h 10mph /  16.1km/h 62% 0.00in /  0mm 0 W/m2
02:49 9.5 °F /  -12.5 °C -1.2 °F /  -18.4 °C 29.73in /  1006.7hPa NW 3.1mph /  5km/h 11mph /  17.7km/h 61.1% 0.00in /  0mm 0 W/m2
02:54 9.5 °F /  -12.5 °C -1.1 °F /  -18.4 °C 29.73in /  1006.7hPa NW 4.3mph /  6.9km/h 11mph /  17.7km/h 61.4% 0.00in /  0mm 0 W/m2
02:59 9.6 °F /  -12.4 °C -1.1 °F /  -18.4 °C 29.73in /  1006.7hPa NW 4.7mph /  7.6km/h 11mph /  17.7km/h 61% 0.00in /  0mm 0 W/m2
03:04 9.7 °F /  -12.4 °C -1.2 °F /  -18.4 °C 29.73in /  1006.7hPa NW 5mph /  8km/h 11mph /  17.7km/h 60.5% 0.00in /  0mm 0 W/m2
03:09 9.8 °F /  -12.3 °C -1.3 °F /  -18.5 °C 29.73in /  1006.7hPa WNW 2.8mph /  4.5km/h 11mph /  17.7km/h 60% 0.00in /  0mm 0 W/m2
03:14 9.9 °F /  -12.3 °C -1.1 °F /  -18.4 °C 29.73in /  1006.7hPa NW 2.1mph /  3.4km/h 11mph /  17.7km/h 60.4% 0.00in /  0mm 0 W/m2
03:19 9.8 °F /  -12.3 °C -1.2 °F /  -18.4 °C 29.74in /  1007hPa NW 4.2mph /  6.8km/h 13mph /  20.9km/h 60% 0.00in /  0mm 0 W/m2
03:24 9.8 °F /  -12.3 °C -1.3 °F /  -18.5 °C 29.74in /  1007hPa WNW 3.9mph /  6.3km/h 13mph /  20.9km/h 60% 0.00in /  0mm 0 W/m2
03:29 9.9 °F /  -12.3 °C -1.2 °F /  -18.4 °C 29.74in /  1007hPa NW 4.7mph /  7.6km/h 13mph /  20.9km/h 60% 0.00in /  0mm 0 W/m2
03:34 9.9 °F /  -12.3 °C -1.4 °F /  -18.6 °C 29.74in /  1007hPa NW 3.8mph /  6.1km/h 13mph /  20.9km/h 59.5% 0.00in /  0mm 0 W/m2
03:39 9.9 °F /  -12.3 °C -1.6 °F /  -18.7 °C 29.74in /  1007hPa NW 8.5mph /  13.7km/h 18mph /  29km/h 58.8% 0.00in /  0mm 0 W/m2
03:44 10.1 °F /  -12.2 °C -1.7 °F /  -18.7 °C 29.74in /  1007hPa WNW 8.2mph /  13.2km/h 18mph /  29km/h 58% 0.00in /  0mm 0 W/m2
03:49 10.2 °F /  -12.1 °C -2 °F /  -18.9 °C 29.75in /  1007.3hPa WNW 7.9mph /  12.7km/h 18mph /  29km/h 57% 0.00in /  0mm 0 W/m2
03:54 10.2 °F /  -12.1 °C -1.9 °F /  -18.8 °C 29.75in /  1007.3hPa WNW 7.5mph /  12.1km/h 18mph /  29km/h 57.2% 0.00in /  0mm 0 W/m2
03:59 10.2 °F /  -12.1 °C -1.8 °F /  -18.8 °C 29.75in /  1007.3hPa WNW 7mph /  11.3km/h 18mph /  29km/h 57.5% 0.00in /  0mm 0 W/m2
04:00 10.2 °F /  -12.1 °C -1.6 °F /  -18.7 °C 29.75in /  1007.3hPa NW 12mph /  19.3km/h 18mph /  29km/h 58% 0.00in /  0mm 0 W/m2
04:09 10.1 °F /  -12.2 °C -1.7 °F /  -18.7 °C 29.76in /  1007.7hPa WNW 7.1mph /  11.4km/h 14mph /  22.5km/h 58.3% 0.00in /  0mm 0 W/m2
04:14 9.9 °F /  -12.3 °C -1.9 °F /  -18.8 °C 29.76in /  1007.7hPa WNW 6.8mph /  10.9km/h 15mph /  24.1km/h 58% 0.00in /  0mm 0 W/m2
04:19 9.9 °F /  -12.3 °C -1.9 °F /  -18.8 °C 29.76in /  1007.7hPa WNW 9.1mph /  14.6km/h 15mph /  24.1km/h 58% 0.00in /  0mm 0 W/m2
04:24 9.8 °F /  -12.3 °C -2 °F /  -18.9 °C 29.77in /  1008hPa WNW 9.2mph /  14.8km/h 21mph /  33.8km/h 58% 0.00in /  0mm 0 W/m2
04:29 9.8 °F /  -12.3 °C -2.1 °F /  -18.9 °C 29.77in /  1008hPa WNW 10.1mph /  16.3km/h 21mph /  33.8km/h 57.7% 0.00in /  0mm 0 W/m2
04:34 9.9 °F /  -12.3 °C -2.1 °F /  -18.9 °C 29.77in /  1008hPa WNW 10.2mph /  16.4km/h 21mph /  33.8km/h 57.6% 0.00in /  0mm 0 W/m2
04:39 9.9 °F /  -12.3 °C -1.8 °F /  -18.8 °C 29.78in /  1008.4hPa WNW 7.7mph /  12.4km/h 18mph /  29km/h 58.2% 0.00in /  0mm 0 W/m2
04:44 9.8 °F /  -12.3 °C -1.8 °F /  -18.8 °C 29.78in /  1008.4hPa WNW 8.4mph /  13.5km/h 18mph /  29km/h 58.4% 0.00in /  0mm 0 W/m2
04:49 9.8 °F /  -12.3 °C -2.4 °F /  -19.1 °C 29.78in /  1008.4hPa WNW 5.8mph /  9.3km/h 18mph /  29km/h 57% 0.00in /  0mm 0 W/m2
04:54 9.8 °F /  -12.3 °C -2 °F /  -18.9 °C 29.78in /  1008.4hPa WNW 6.6mph /  10.6km/h 18mph /  29km/h 58% 0.00in /  0mm 0 W/m2
04:59 9.7 °F /  -12.4 °C -2.1 °F /  -18.9 °C 29.79in /  1008.7hPa WNW 3.2mph /  5.1km/h 18mph /  29km/h 58% 0.00in /  0mm 0 W/m2
05:04 9.6 °F /  -12.4 °C -2.2 °F /  -19 °C 29.79in /  1008.7hPa WNW 4.9mph /  7.9km/h 18mph /  29km/h 58% 0.00in /  0mm 0 W/m2
05:09 9.6 °F /  -12.4 °C -2.1 °F /  -18.9 °C 29.80in /  1009hPa WNW 3.1mph /  5km/h 10mph /  16.1km/h 58.2% 0.00in /  0mm 0 W/m2
05:14 9.5 °F /  -12.5 °C -2 °F /  -18.9 °C 29.80in /  1009hPa WNW 4.5mph /  7.2km/h 10mph /  16.1km/h 59% 0.00in /  0mm 0 W/m2
05:19 9.3 °F /  -12.6 °C -2.3 °F /  -19.1 °C 29.80in /  1009hPa WNW 4.7mph /  7.6km/h 11mph /  17.7km/h 58.4% 0.00in /  0mm 0 W/m2
05:24 9.2 °F /  -12.7 °C -2.6 °F /  -19.2 °C 29.80in /  1009hPa NW 4.8mph /  7.7km/h 11mph /  17.7km/h 58% 0.00in /  0mm 0 W/m2
05:29 9.2 °F /  -12.7 °C -2.5 °F /  -19.2 °C 29.81in /  1009.4hPa WNW 2.8mph /  4.5km/h 11mph /  17.7km/h 58% 0.00in /  0mm 0 W/m2
05:34 9.2 °F /  -12.7 °C -2.2 °F /  -19 °C 29.81in /  1009.4hPa WNW 1.3mph /  2.1km/h 11mph /  17.7km/h 59.2% 0.00in /  0mm 0 W/m2
05:39 9.1 °F /  -12.7 °C -2 °F /  -18.9 °C 29.81in /  1009.4hPa WNW 1.5mph /  2.4km/h 5mph /  8km/h 59.6% 0.00in /  0mm 0 W/m2
05:44 9 °F /  -12.8 °C -2.1 °F /  -18.9 °C 29.82in /  1009.7hPa WNW 3.3mph /  5.3km/h 11mph /  17.7km/h 59.7% 0.00in /  0mm 0 W/m2
05:49 9 °F /  -12.8 °C -2.3 °F /  -19.1 °C 29.82in /  1009.7hPa WNW 2.2mph /  3.5km/h 11mph /  17.7km/h 59.2% 0.00in /  0mm 0 W/m2
05:54 8.9 °F /  -12.8 °C -2.3 °F /  -19.1 °C 29.82in /  1009.7hPa WNW 3.9mph /  6.3km/h 11mph /  17.7km/h 59.5% 0.00in /  0mm 0 W/m2
05:59 8.9 °F /  -12.8 °C -2.1 °F /  -18.9 °C 29.82in /  1009.7hPa WNW 2.5mph /  4km/h 11mph /  17.7km/h 60% 0.00in /  0mm 0 W/m2
06:04 8.8 °F /  -12.9 °C -1.9 °F /  -18.8 °C 29.83in /  1010hPa WNW 1.8mph /  2.9km/h 11mph /  17.7km/h 61% 0.00in /  0mm 0 W/m2
06:09 8.7 °F /  -12.9 °C -2 °F /  -18.9 °C 29.83in /  1010hPa WNW 1mph /  1.6km/h 5mph /  8km/h 60.9% 0.00in /  0mm 0 W/m2
06:14 8.7 °F /  -12.9 °C -2.2 °F /  -19 °C 29.83in /  1010hPa WNW 0.8mph /  1.3km/h 5mph /  8km/h 60.6% 0.00in /  0mm 0 W/m2
06:19 8.6 °F /  -13 °C -2 °F /  -18.9 °C 29.83in /  1010hPa WNW 0.2mph /  0.3km/h 5mph /  8km/h 61.2% 0.00in /  0mm 0 W/m2
06:24 8.5 °F /  -13.1 °C -1.8 °F /  -18.8 °C 29.84in /  1010.4hPa Calm   5mph /  8km/h 62.2% 0.00in /  0mm 0 W/m2
06:29 8.3 °F /  -13.2 °C -2.2 °F /  -19 °C 29.84in /  1010.4hPa WNW 0.1mph /  0.2km/h 5mph /  8km/h 61.3% 0.00in /  0mm 0 W/m2
06:34 8.3 °F /  -13.2 °C -2 °F /  -18.9 °C 29.84in /  1010.4hPa WNW 0.9mph /  1.4km/h 5mph /  8km/h 62.1% 0.00in /  0mm 0 W/m2
06:39 8.1 °F /  -13.3 °C -1.9 °F /  -18.8 °C 29.85in /  1010.7hPa WNW 0.6mph /  1km/h 4mph /  6.4km/h 63% 0.00in /  0mm 0 W/m2
06:44 7.8 °F /  -13.4 °C -1.9 °F /  -18.8 °C 29.85in /  1010.7hPa WNW 1mph /  1.6km/h 4mph /  6.4km/h 64% 0.00in /  0mm 0 W/m2
06:49 7.5 °F /  -13.6 °C -1.8 °F /  -18.8 °C 29.85in /  1010.7hPa WNW 1.2mph /  1.9km/h 4mph /  6.4km/h 64.9% 0.00in /  0mm 0 W/m2
06:54 7.3 °F /  -13.7 °C -2 °F /  -18.9 °C 29.85in /  1010.7hPa WNW 1mph /  1.6km/h 4mph /  6.4km/h 65% 0.00in /  0mm 0 W/m2
06:59 7.1 °F /  -13.8 °C -2.4 °F /  -19.1 °C 29.85in /  1010.7hPa WNW 0.3mph /  0.5km/h 4mph /  6.4km/h 64.1% 0.00in /  0mm 0 W/m2
07:04 7 °F /  -13.9 °C -2.4 °F /  -19.1 °C 29.86in /  1011.1hPa WNW 1.7mph /  2.7km/h 4mph /  6.4km/h 64.6% 0.00in /  0mm 0 W/m2
07:09 6.9 °F /  -13.9 °C -2.9 °F /  -19.4 °C 29.86in /  1011.1hPa WNW 0.5mph /  0.8km/h 4mph /  6.4km/h 63.4% 0.00in /  0mm 5 W/m2
07:14 6.9 °F /  -13.9 °C -2.6 °F /  -19.2 °C 29.86in /  1011.1hPa Calm   4mph /  6.4km/h 64.3% 0.00in /  0mm 11 W/m2
07:19 6.8 °F /  -14 °C -2.2 °F /  -19 °C 29.86in /  1011.1hPa Calm   4mph /  6.4km/h 65.8% 0.00in /  0mm 12 W/m2
07:24 6.7 °F /  -14.1 °C -2.4 °F /  -19.1 °C 29.87in /  1011.4hPa WNW 0.1mph /  0.2km/h 4mph /  6.4km/h 65.3% 0.00in /  0mm 16 W/m2
07:29 6.8 °F /  -14 °C -2.4 °F /  -19.1 °C 29.87in /  1011.4hPa WNW 0.5mph /  0.8km/h 4mph /  6.4km/h 65% 0.00in /  0mm 25 W/m2
07:34 7 °F /  -13.9 °C -2.3 °F /  -19.1 °C 29.88in /  1011.7hPa WNW 1.1mph /  1.8km/h 4mph /  6.4km/h 65% 0.00in /  0mm 28 W/m2
07:39 7.3 °F /  -13.7 °C -2 °F /  -18.9 °C 29.87in /  1011.4hPa WNW 1.2mph /  1.9km/h 4mph /  6.4km/h 65% 0.00in /  0mm 35 W/m2
07:44 7.8 °F /  -13.4 °C -1.4 °F /  -18.6 °C 29.88in /  1011.7hPa West 3.2mph /  5.1km/h 10mph /  16.1km/h 65.2% 0.00in /  0mm 35 W/m2
07:49 8.4 °F /  -13.1 °C -0.9 °F /  -18.3 °C 29.88in /  1011.7hPa West 1.3mph /  2.1km/h 10mph /  16.1km/h 65% 0.00in /  0mm 26 W/m2
07:54 8.9 °F /  -12.8 °C -0.6 °F /  -18.1 °C 29.88in /  1011.7hPa West 2.5mph /  4km/h 10mph /  16.1km/h 64.5% 0.00in /  0mm 32 W/m2
07:55 9.2 °F /  -12.7 °C -0.5 °F /  -18.1 °C 29.88in /  1011.7hPa WNW 2.8mph /  4.5km/h 10mph /  16.1km/h 64% 0.00in /  0mm 32 W/m2
08:09 10.5 °F /  -11.9 °C 0.1 °F /  -17.7 °C 29.89in /  1012.1hPa WNW 1.3mph /  2.1km/h 5mph /  8km/h 62.1% 0.00in /  0mm 46 W/m2
08:14 11 °F /  -11.7 °C 0.3 °F /  -17.6 °C 29.90in /  1012.4hPa West 1.3mph /  2.1km/h 7mph /  11.3km/h 61.5% 0.00in /  0mm 51 W/m2
08:19 11.5 °F /  -11.4 °C 0.1 °F /  -17.7 °C 29.90in /  1012.4hPa WNW 2.1mph /  3.4km/h 12mph /  19.3km/h 59.5% 0.00in /  0mm 69 W/m2
08:24 12 °F /  -11.1 °C 0.7 °F /  -17.4 °C 29.90in /  1012.4hPa WNW 2.9mph /  4.7km/h 12mph /  19.3km/h 59.7% 0.00in /  0mm 100 W/m2
08:29 12.7 °F /  -10.7 °C 0.7 °F /  -17.4 °C 29.90in /  1012.4hPa WNW 4.9mph /  7.9km/h 12mph /  19.3km/h 58% 0.00in /  0mm 120 W/m2
08:34 13.7 °F /  -10.2 °C 1.7 °F /  -16.8 °C 29.91in /  1012.8hPa WNW 5.4mph /  8.7km/h 12mph /  19.3km/h 58% 0.00in /  0mm 132 W/m2
08:39 14.7 °F /  -9.6 °C 1.8 °F /  -16.8 °C 29.91in /  1012.8hPa WNW 6.1mph /  9.8km/h 13mph /  20.9km/h 55.9% 0.00in /  0mm 130 W/m2
08:44 15.5 °F /  -9.2 °C 1.9 °F /  -16.7 °C 29.91in /  1012.8hPa WNW 7.9mph /  12.7km/h 17mph /  27.4km/h 54% 0.00in /  0mm 155 W/m2
08:49 16.3 °F /  -8.7 °C 2.2 °F /  -16.6 °C 29.91in /  1012.8hPa WNW 7.4mph /  11.9km/h 17mph /  27.4km/h 53.2% 0.00in /  0mm 160 W/m2
08:54 16.9 °F /  -8.4 °C 2.3 °F /  -16.5 °C 29.91in /  1012.8hPa WNW 10.2mph /  16.4km/h 18mph /  29km/h 51.9% 0.00in /  0mm 167 W/m2
08:59 17.4 °F /  -8.1 °C 2 °F /  -16.7 °C 29.91in /  1012.8hPa WNW 5.3mph /  8.5km/h 18mph /  29km/h 50.1% 0.00in /  0mm 171 W/m2
09:04 17.9 °F /  -7.8 °C 2.5 °F /  -16.4 °C 29.91in /  1012.8hPa WNW 8.6mph /  13.8km/h 18mph /  29km/h 50.2% 0.00in /  0mm 174 W/m2
09:09 18.2 °F /  -7.7 °C 2.4 °F /  -16.4 °C 29.91in /  1012.8hPa WNW 8.5mph /  13.7km/h 18mph /  29km/h 49.3% 0.00in /  0mm 179 W/m2
09:14 18.6 °F /  -7.4 °C 2.7 °F /  -16.3 °C 29.92in /  1013.1hPa WNW 6.7mph /  10.8km/h 18mph /  29km/h 49.1% 0.00in /  0mm 185 W/m2
09:19 19.1 °F /  -7.2 °C 3.3 °F /  -15.9 °C 29.92in /  1013.1hPa WNW 7.6mph /  12.2km/h 18mph /  29km/h 49.4% 0.00in /  0mm 190 W/m2
09:24 19.4 °F /  -7 °C 2.9 °F /  -16.2 °C 29.92in /  1013.1hPa WNW 5.7mph /  9.2km/h 18mph /  29km/h 48% 0.00in /  0mm 199 W/m2
09:29 19.8 °F /  -6.8 °C 3.3 °F /  -15.9 °C 29.92in /  1013.1hPa WNW 7.5mph /  12.1km/h 18mph /  29km/h 48% 0.00in /  0mm 207 W/m2
09:34 20.1 °F /  -6.6 °C 3.1 °F /  -16.1 °C 29.92in /  1013.1hPa WNW 9.2mph /  14.8km/h 18mph /  29km/h 46.9% 0.00in /  0mm 216 W/m2
09:39 20 °F /  -6.7 °C 2.2 °F /  -16.6 °C 29.92in /  1013.1hPa WNW 10.5mph /  16.9km/h 19mph /  30.6km/h 45.2% 0.00in /  0mm 223 W/m2
09:44 19.8 °F /  -6.8 °C 1.7 °F /  -16.8 °C 29.93in /  1013.4hPa WNW 9.8mph /  15.8km/h 19mph /  30.6km/h 44.6% 0.00in /  0mm 223 W/m2
09:49 19.6 °F /  -6.9 °C 1.4 °F /  -17 °C 29.93in /  1013.4hPa WNW 8.9mph /  14.3km/h 19mph /  30.6km/h 44.5% 0.00in /  0mm 236 W/m2
09:54 19.5 °F /  -6.9 °C 1.7 °F /  -16.8 °C 29.93in /  1013.4hPa WNW 8.9mph /  14.3km/h 21mph /  33.8km/h 45.1% 0.00in /  0mm 255 W/m2
09:59 19.5 °F /  -6.9 °C 1.5 °F /  -16.9 °C 29.92in /  1013.1hPa WNW 12.5mph /  20.1km/h 23mph /  37km/h 44.7% 0.00in /  0mm 236 W/m2
10:04 19.3 °F /  -7.1 °C 1.1 °F /  -17.2 °C 29.93in /  1013.4hPa WNW 10.7mph /  17.2km/h 23mph /  37km/h 44.3% 0.00in /  0mm 211 W/m2
10:09 19.3 °F /  -7.1 °C 0.8 °F /  -17.3 °C 29.93in /  1013.4hPa WNW 12.9mph /  20.8km/h 21mph /  33.8km/h 43.8% 0.00in /  0mm 225 W/m2
10:14 19.3 °F /  -7.1 °C 1 °F /  -17.2 °C 29.93in /  1013.4hPa WNW 8.9mph /  14.3km/h 21mph /  33.8km/h 44.2% 0.00in /  0mm 306 W/m2
10:19 19.7 °F /  -6.8 °C 2 °F /  -16.7 °C 29.93in /  1013.4hPa WNW 8.9mph /  14.3km/h 21mph /  33.8km/h 45.5% 0.00in /  0mm 304 W/m2
10:24 20.2 °F /  -6.6 °C 2.3 °F /  -16.5 °C 29.93in /  1013.4hPa WNW 6.3mph /  10.1km/h 21mph /  33.8km/h 45% 0.00in /  0mm 311 W/m2
10:29 20.6 °F /  -6.3 °C 3.6 °F /  -15.8 °C 29.93in /  1013.4hPa WNW 6.5mph /  10.5km/h 21mph /  33.8km/h 46.9% 0.00in /  0mm 327 W/m2
10:34 21 °F /  -6.1 °C 2.9 °F /  -16.2 °C 29.93in /  1013.4hPa WNW 7.2mph /  11.6km/h 21mph /  33.8km/h 44.9% 0.00in /  0mm 385 W/m2
10:39 21.5 °F /  -5.8 °C 4 °F /  -15.6 °C 29.94in /  1013.8hPa WNW 7.2mph /  11.6km/h 16mph /  25.7km/h 46.1% 0.00in /  0mm 443 W/m2
10:44 22.1 °F /  -5.5 °C 3.9 °F /  -15.6 °C 29.94in /  1013.8hPa WNW 8.4mph /  13.5km/h 18mph /  29km/h 44.8% 0.00in /  0mm 468 W/m2
10:49 22.5 °F /  -5.3 °C 4.1 °F /  -15.5 °C 29.94in /  1013.8hPa WNW 8.9mph /  14.3km/h 19mph /  30.6km/h 44.3% 0.00in /  0mm 490 W/m2
10:54 22.7 °F /  -5.2 °C 2.9 °F /  -16.2 °C 29.94in /  1013.8hPa WNW 11.9mph /  19.2km/h 21mph /  33.8km/h 41.8% 0.00in /  0mm 508 W/m2
10:59 22.5 °F /  -5.3 °C 2.4 °F /  -16.4 °C 29.94in /  1013.8hPa WNW 11.4mph /  18.3km/h 21mph /  33.8km/h 41.2% 0.00in /  0mm 519 W/m2
11:04 22.3 °F /  -5.4 °C 2.3 °F /  -16.5 °C 29.94in /  1013.8hPa NW 7.9mph /  12.7km/h 21mph /  33.8km/h 41.3% 0.00in /  0mm 517 W/m2
11:09 22.4 °F /  -5.3 °C 3.2 °F /  -16 °C 29.94in /  1013.8hPa WNW 7.6mph /  12.2km/h 16mph /  25.7km/h 42.9% 0.00in /  0mm 564 W/m2
11:14 22.7 °F /  -5.2 °C 4 °F /  -15.6 °C 29.94in /  1013.8hPa WNW 4.7mph /  7.6km/h 16mph /  25.7km/h 44% 0.00in /  0mm 545 W/m2
11:19 22.9 °F /  -5.1 °C 3.7 °F /  -15.7 °C 29.94in /  1013.8hPa NW 6.3mph /  10.1km/h 16mph /  25.7km/h 42.9% 0.00in /  0mm 492 W/m2
11:24 22.9 °F /  -5.1 °C 3.9 °F /  -15.6 °C 29.94in /  1013.8hPa West 3.6mph /  5.8km/h 16mph /  25.7km/h 43.3% 0.00in /  0mm 417 W/m2
11:29 22.9 °F /  -5.1 °C 4.4 °F /  -15.3 °C 29.94in /  1013.8hPa WNW 5.9mph /  9.5km/h 16mph /  25.7km/h 44.4% 0.00in /  0mm 229 W/m2
11:34 22.9 °F /  -5.1 °C 3.9 °F /  -15.6 °C 29.94in /  1013.8hPa WNW 8.4mph /  13.5km/h 16mph /  25.7km/h 43.3% 0.00in /  0mm 380 W/m2
11:39 22.8 °F /  -5.1 °C 3.4 °F /  -15.9 °C 29.94in /  1013.8hPa NW 7.4mph /  11.9km/h 15mph /  24.1km/h 42.7% 0.00in /  0mm 406 W/m2
11:44 22.6 °F /  -5.2 °C 3.5 °F /  -15.8 °C 29.94in /  1013.8hPa WNW 6.8mph /  10.9km/h 15mph /  24.1km/h 43.1% 0.00in /  0mm 214 W/m2
11:49 22.5 °F /  -5.3 °C 3.4 °F /  -15.9 °C 29.94in /  1013.8hPa WNW 4.9mph /  7.9km/h 15mph /  24.1km/h 42.9% 0.00in /  0mm 341 W/m2
11:54 22.7 °F /  -5.2 °C 4.1 °F /  -15.5 °C 29.93in /  1013.4hPa WNW 6.8mph /  10.9km/h 15mph /  24.1km/h 44.1% 0.00in /  0mm 348 W/m2
11:59 22.7 °F /  -5.2 °C 3.8 °F /  -15.7 °C 29.93in /  1013.4hPa WNW 8.1mph /  13km/h 18mph /  29km/h 43.5% 0.00in /  0mm 482 W/m2
12:09 22.5 °F /  -5.3 °C 3.1 °F /  -16.1 °C 29.93in /  1013.4hPa WNW 7.5mph /  12.1km/h 16mph /  25.7km/h 42.5% 0.00in /  0mm 459 W/m2
12:14 22.5 °F /  -5.3 °C 2.9 °F /  -16.2 °C 29.93in /  1013.4hPa NW 8.9mph /  14.3km/h 16mph /  25.7km/h 42.1% 0.00in /  0mm 301 W/m2
12:19 22.5 °F /  -5.3 °C 3.1 °F /  -16.1 °C 29.93in /  1013.4hPa NW 5.7mph /  9.2km/h 16mph /  25.7km/h 42.5% 0.00in /  0mm 214 W/m2
12:24 22.6 °F /  -5.2 °C 3.4 °F /  -15.9 °C 29.93in /  1013.4hPa WNW 8.7mph /  14km/h 16mph /  25.7km/h 42.7% 0.00in /  0mm 288 W/m2
12:29 22.6 °F /  -5.2 °C 2.8 °F /  -16.2 °C 29.93in /  1013.4hPa NW 8.3mph /  13.4km/h 17mph /  27.4km/h 41.7% 0.00in /  0mm 209 W/m2
12:34 22.6 °F /  -5.2 °C 3.4 °F /  -15.9 °C 29.93in /  1013.4hPa NW 8.4mph /  13.5km/h 17mph /  27.4km/h 42.9% 0.00in /  0mm 160 W/m2
12:39 22.6 °F /  -5.2 °C 2.9 °F /  -16.2 °C 29.92in /  1013.1hPa WNW 10.9mph /  17.5km/h 19mph /  30.6km/h 41.8% 0.00in /  0mm 88 W/m2
12:44 22.6 °F /  -5.2 °C 3.2 °F /  -16 °C 29.92in /  1013.1hPa NW 7.2mph /  11.6km/h 19mph /  30.6km/h 42.5% 0.00in /  0mm 348 W/m2
12:49 22.7 °F /  -5.2 °C 3.6 °F /  -15.8 °C 29.92in /  1013.1hPa NW 9.2mph /  14.8km/h 19mph /  30.6km/h 43.2% 0.00in /  0mm 183 W/m2
12:54 22.8 °F /  -5.1 °C 4.1 °F /  -15.5 °C 29.92in /  1013.1hPa NW 5.9mph /  9.5km/h 19mph /  30.6km/h 43.8% 0.00in /  0mm 220 W/m2
12:59 23.1 °F /  -4.9 °C 4.4 °F /  -15.3 °C 29.92in /  1013.1hPa NW 4.4mph /  7.1km/h 19mph /  30.6km/h 44.1% 0.00in /  0mm 396 W/m2
13:04 23.5 °F /  -4.7 °C 5.3 °F /  -14.8 °C 29.92in /  1013.1hPa WNW 1.7mph /  2.7km/h 19mph /  30.6km/h 45% 0.00in /  0mm 487 W/m2
13:09 23.8 °F /  -4.6 °C 5.4 °F /  -14.8 °C 29.92in /  1013.1hPa WNW 2.9mph /  4.7km/h 9mph /  14.5km/h 44.6% 0.00in /  0mm 72 W/m2
13:14 24.1 °F /  -4.4 °C 5.6 °F /  -14.7 °C 29.92in /  1013.1hPa WNW 5.2mph /  8.4km/h 12mph /  19.3km/h 44.6% 0.00in /  0mm 309 W/m2
13:19 24.2 °F /  -4.3 °C 5.5 °F /  -14.7 °C 29.92in /  1013.1hPa WNW 2.2mph /  3.5km/h 12mph /  19.3km/h 44.2% 0.00in /  0mm 139 W/m2
13:24 24.2 °F /  -4.3 °C 5.3 °F /  -14.8 °C 29.92in /  1013.1hPa WNW 3.2mph /  5.1km/h 12mph /  19.3km/h 43.8% 0.00in /  0mm 158 W/m2
13:29 24.3 °F /  -4.3 °C 5.3 °F /  -14.8 °C 29.92in /  1013.1hPa West 5.9mph /  9.5km/h 12mph /  19.3km/h 43.5% 0.00in /  0mm 134 W/m2
13:34 24.4 °F /  -4.2 °C 4.9 °F /  -15.1 °C 29.92in /  1013.1hPa WNW 6.8mph /  10.9km/h 13mph /  20.9km/h 42.6% 0.00in /  0mm 116 W/m2
13:39 24.4 °F /  -4.2 °C 5.3 °F /  -14.8 °C 29.91in /  1012.8hPa WNW 2mph /  3.2km/h 13mph /  20.9km/h 43.2% 0.00in /  0mm 146 W/m2
13:44 24.7 °F /  -4.1 °C 6.3 °F /  -14.3 °C 29.91in /  1012.8hPa WNW 3.6mph /  5.8km/h 13mph /  20.9km/h 44.9% 0.00in /  0mm 533 W/m2
13:49 24.9 °F /  -3.9 °C 6.2 °F /  -14.3 °C 29.91in /  1012.8hPa NW 4.8mph /  7.7km/h 13mph /  20.9km/h 44.1% 0.00in /  0mm 334 W/m2
13:54 25.1 °F /  -3.8 °C 6.1 °F /  -14.4 °C 29.92in /  1013.1hPa WNW 2.5mph /  4km/h 13mph /  20.9km/h 43.6% 0.00in /  0mm 512 W/m2
13:59 25.2 °F /  -3.8 °C 6.9 °F /  -13.9 °C 29.92in /  1013.1hPa WNW 2.5mph /  4km/h 13mph /  20.9km/h 45% 0.00in /  0mm 325 W/m2
14:04 25.4 °F /  -3.7 °C 6.6 °F /  -14.1 °C 29.92in /  1013.1hPa WNW 6.4mph /  10.3km/h 13mph /  20.9km/h 44.2% 0.00in /  0mm 309 W/m2
14:09 25.4 °F /  -3.7 °C 5.9 °F /  -14.5 °C 29.92in /  1013.1hPa WNW 6.5mph /  10.5km/h 16mph /  25.7km/h 42.6% 0.00in /  0mm 369 W/m2
14:14 25.4 °F /  -3.7 °C 5.6 °F /  -14.7 °C 29.92in /  1013.1hPa WNW 6mph /  9.7km/h 16mph /  25.7km/h 42.2% 0.00in /  0mm 297 W/m2
14:19 25.4 °F /  -3.7 °C 6 °F /  -14.4 °C 29.92in /  1013.1hPa West 1.5mph /  2.4km/h 16mph /  25.7km/h 43% 0.00in /  0mm 364 W/m2
14:24 25.5 °F /  -3.6 °C 6.7 °F /  -14.1 °C 29.92in /  1013.1hPa WNW 5.3mph /  8.5km/h 16mph /  25.7km/h 44.2% 0.00in /  0mm 260 W/m2
14:28 25.5 °F /  -3.6 °C 7.5 °F /  -13.6 °C 29.92in /  1013.1hPa WNW 2mph /  3.2km/h 16mph /  25.7km/h 45.8% 0.00in /  0mm 181 W/m2
14:34 25.4 °F /  -3.7 °C 7.5 °F /  -13.6 °C 29.92in /  1013.1hPa Calm     46% 0.00in /  0mm 44 W/m2
14:39 25.5 °F /  -3.6 °C 7.7 °F /  -13.5 °C 29.92in /  1013.1hPa WNW 0.7mph /  1.1km/h 5mph /  8km/h 46.3% 0.00in /  0mm 144 W/m2
14:44 25.5 °F /  -3.6 °C 6.8 °F /  -14 °C 29.92in /  1013.1hPa NW 4.1mph /  6.6km/h 10mph /  16.1km/h 44.2% 0.00in /  0mm 248 W/m2
14:49 25.5 °F /  -3.6 °C 6.4 °F /  -14.2 °C 29.92in /  1013.1hPa NW 2mph /  3.2km/h 12mph /  19.3km/h 43.6% 0.00in /  0mm 118 W/m2
14:54 25.4 °F /  -3.7 °C 6.6 °F /  -14.1 °C 29.93in /  1013.4hPa WNW 3.1mph /  5km/h 16mph /  25.7km/h 44% 0.00in /  0mm 178 W/m2
14:59 25.4 °F /  -3.7 °C 6.4 °F /  -14.2 °C 29.93in /  1013.4hPa NW 4.7mph /  7.6km/h 16mph /  25.7km/h 43.6% 0.00in /  0mm 135 W/m2
15:04 25.4 °F /  -3.7 °C 6.5 °F /  -14.2 °C 29.93in /  1013.4hPa WNW 4.5mph /  7.2km/h 16mph /  25.7km/h 44% 0.00in /  0mm 35 W/m2
15:09 25.4 °F /  -3.7 °C 6.1 °F /  -14.4 °C 29.93in /  1013.4hPa NW 6.1mph /  9.8km/h 14mph /  22.5km/h 43% 0.00in /  0mm 33 W/m2
15:14 25.3 °F /  -3.7 °C 5.5 °F /  -14.7 °C 29.93in /  1013.4hPa WNW 8.9mph /  14.3km/h 15mph /  24.1km/h 42.1% 0.00in /  0mm 33 W/m2
15:19 25.1 °F /  -3.8 °C 5.5 °F /  -14.7 °C 29.93in /  1013.4hPa WNW 5.7mph /  9.2km/h 15mph /  24.1km/h 42.6% 0.00in /  0mm 32 W/m2
15:24 24.9 °F /  -3.9 °C 5.3 °F /  -14.8 °C 29.93in /  1013.4hPa WNW 6.8mph /  10.9km/h 17mph /  27.4km/h 42.5% 0.00in /  0mm 30 W/m2
15:29 24.8 °F /  -4 °C 5.2 °F /  -14.9 °C 29.94in /  1013.8hPa NW 6.2mph /  10km/h 18mph /  29km/h 42.4% 0.00in /  0mm 30 W/m2
15:34 24.6 °F /  -4.1 °C 5.1 °F /  -14.9 °C 29.94in /  1013.8hPa WNW 7.9mph /  12.7km/h 18mph /  29km/h 42.5% 0.00in /  0mm 28 W/m2
15:39 24.5 °F /  -4.2 °C 4.7 °F /  -15.2 °C 29.94in /  1013.8hPa NW 7.7mph /  12.4km/h 18mph /  29km/h 42% 0.00in /  0mm 26 W/m2
15:44 24.4 °F /  -4.2 °C 4.7 °F /  -15.2 °C 29.94in /  1013.8hPa WNW 7.5mph /  12.1km/h 18mph /  29km/h 42.2% 0.00in /  0mm 26 W/m2
15:49 24.3 °F /  -4.3 °C 4.5 °F /  -15.3 °C 29.95in /  1014.1hPa NW 7.4mph /  11.9km/h 18mph /  29km/h 41.9% 0.00in /  0mm 25 W/m2
15:54 24.2 °F /  -4.3 °C 4.7 °F /  -15.2 °C 29.95in /  1014.1hPa WNW 7.1mph /  11.4km/h 18mph /  29km/h 42.4% 0.00in /  0mm 25 W/m2
15:59 24.1 °F /  -4.4 °C 4.4 °F /  -15.3 °C 29.96in /  1014.4hPa WNW 6.6mph /  10.6km/h 18mph /  29km/h 42.1% 0.00in /  0mm 23 W/m2
16:09 23.9 °F /  -4.5 °C 4.6 °F /  -15.2 °C 29.96in /  1014.4hPa NW 5.6mph /  9km/h 13mph /  20.9km/h 43% 0.00in /  0mm 21 W/m2
16:14 23.8 °F /  -4.6 °C 4.4 °F /  -15.3 °C 29.96in /  1014.4hPa WNW 6.9mph /  11.1km/h 13mph /  20.9km/h 42.6% 0.00in /  0mm 19 W/m2
16:19 23.8 °F /  -4.6 °C 4.7 °F /  -15.2 °C 29.96in /  1014.4hPa WNW 3.2mph /  5.1km/h 13mph /  20.9km/h 43.3% 0.00in /  0mm 19 W/m2
16:24 23.7 °F /  -4.6 °C 5.1 °F /  -14.9 °C 29.97in /  1014.8hPa WNW 1.3mph /  2.1km/h 13mph /  20.9km/h 44.3% 0.00in /  0mm 18 W/m2
16:29 23.6 °F /  -4.7 °C 5 °F /  -15 °C 29.97in /  1014.8hPa WNW 4.2mph /  6.8km/h 13mph /  20.9km/h 44.3% 0.00in /  0mm 16 W/m2
16:34 23.5 °F /  -4.7 °C 5.2 °F /  -14.9 °C 29.97in /  1014.8hPa WNW 1.5mph /  2.4km/h 13mph /  20.9km/h 44.9% 0.00in /  0mm 14 W/m2
16:39 23.3 °F /  -4.8 °C 5 °F /  -15 °C 29.97in /  1014.8hPa NW 3.1mph /  5km/h 12mph /  19.3km/h 44.7% 0.00in /  0mm 12 W/m2
16:44 23.1 °F /  -4.9 °C 4.3 °F /  -15.4 °C 29.98in /  1015.1hPa WNW 3.3mph /  5.3km/h 12mph /  19.3km/h 43.7% 0.00in /  0mm 12 W/m2
16:49 22.9 °F /  -5.1 °C 4 °F /  -15.6 °C 29.98in /  1015.1hPa NW 5.4mph /  8.7km/h 16mph /  25.7km/h 43.5% 0.00in /  0mm 11 W/m2
16:54 22.8 °F /  -5.1 °C 4.2 °F /  -15.4 °C 29.98in /  1015.1hPa NW 4mph /  6.4km/h 16mph /  25.7km/h 44.1% 0.00in /  0mm 7 W/m2
16:59 22.6 °F /  -5.2 °C 3.8 °F /  -15.7 °C 29.99in /  1015.5hPa NW 6.5mph /  10.5km/h 16mph /  25.7km/h 43.6% 0.00in /  0mm 5 W/m2
17:04 22.5 °F /  -5.3 °C 3.6 °F /  -15.8 °C 30.00in /  1015.8hPa WNW 2.1mph /  3.4km/h 16mph /  25.7km/h 43.4% 0.00in /  0mm 0 W/m2
17:09 22.4 °F /  -5.3 °C 4.2 °F /  -15.4 °C 30.00in /  1015.8hPa NW 1.2mph /  1.9km/h 6mph /  9.7km/h 45% 0.00in /  0mm 0 W/m2
17:14 22.1 °F /  -5.5 °C 4.5 °F /  -15.3 °C 30.00in /  1015.8hPa Calm   6mph /  9.7km/h 46% 0.00in /  0mm 0 W/m2
17:19 21.9 °F /  -5.6 °C 4.6 °F /  -15.2 °C 30.01in /  1016.1hPa NW 2.2mph /  3.5km/h 10mph /  16.1km/h 46.7% 0.00in /  0mm 0 W/m2
17:24 21.7 °F /  -5.7 °C 4.1 °F /  -15.5 °C 30.01in /  1016.1hPa NW 2.5mph /  4km/h 10mph /  16.1km/h 46% 0.00in /  0mm 0 W/m2
17:29 21.5 °F /  -5.8 °C 3.9 °F /  -15.6 °C 30.01in /  1016.1hPa NW 1.4mph /  2.3km/h 10mph /  16.1km/h 45.8% 0.00in /  0mm 0 W/m2
17:34 21.4 °F /  -5.9 °C 4.2 °F /  -15.4 °C 30.01in /  1016.1hPa NW 1.2mph /  1.9km/h 10mph /  16.1km/h 46.8% 0.00in /  0mm 0 W/m2
17:39 21.3 °F /  -5.9 °C 4.2 °F /  -15.4 °C 30.02in /  1016.5hPa NW 1.6mph /  2.6km/h 6mph /  9.7km/h 47% 0.00in /  0mm 0 W/m2
17:44 21.2 °F /  -6 °C 3.9 °F /  -15.6 °C 30.02in /  1016.5hPa NW 0.5mph /  0.8km/h 6mph /  9.7km/h 46.7% 0.00in /  0mm 0 W/m2
17:49 21.1 °F /  -6.1 °C 4.1 °F /  -15.5 °C 30.03in /  1016.8hPa NW 0.5mph /  0.8km/h 6mph /  9.7km/h 47.2% 0.00in /  0mm 0 W/m2
17:54 21 °F /  -6.1 °C 4.4 °F /  -15.3 °C 30.03in /  1016.8hPa NW 0.1mph /  0.2km/h 6mph /  9.7km/h 48% 0.00in /  0mm 0 W/m2
17:59 20.9 °F /  -6.2 °C 4.3 °F /  -15.4 °C 30.03in /  1016.8hPa NW 0.4mph /  0.6km/h 6mph /  9.7km/h 48% 0.00in /  0mm 0 W/m2
18:04 20.8 °F /  -6.2 °C 4.2 °F /  -15.4 °C 30.03in /  1016.8hPa NW 0.2mph /  0.3km/h 6mph /  9.7km/h 48% 0.00in /  0mm 0 W/m2
18:09 20.6 °F /  -6.3 °C 4.1 °F /  -15.5 °C 30.04in /  1017.2hPa Calm   1mph /  1.6km/h 48% 0.00in /  0mm 0 W/m2
18:14 20.5 °F /  -6.4 °C 4.2 °F /  -15.4 °C 30.04in /  1017.2hPa NW 0.1mph /  0.2km/h 1mph /  1.6km/h 48.6% 0.00in /  0mm 0 W/m2
18:19 20.4 °F /  -6.4 °C 4.3 °F /  -15.4 °C 30.04in /  1017.2hPa Calm   1mph /  1.6km/h 49% 0.00in /  0mm 0 W/m2
18:23 20.3 °F /  -6.5 °C 4.4 °F /  -15.3 °C 30.05in /  1017.5hPa Calm   1mph /  1.6km/h 49.6% 0.00in /  0mm 0 W/m2
18:29 20.1 °F /  -6.6 °C 4.3 °F /  -15.4 °C 30.05in /  1017.5hPa Calm   1mph /  1.6km/h 49.7% 0.00in /  0mm 0 W/m2
18:34 19.9 °F /  -6.7 °C 4 °F /  -15.6 °C 30.05in /  1017.5hPa Calm   1mph /  1.6km/h 49.3% 0.00in /  0mm 0 W/m2
18:39 19.8 °F /  -6.8 °C 4 °F /  -15.6 °C 30.05in /  1017.5hPa Calm     49.6% 0.00in /  0mm 0 W/m2
18:44 19.7 °F /  -6.8 °C 4.1 °F /  -15.5 °C 30.05in /  1017.5hPa Calm     50% 0.00in /  0mm 0 W/m2
18:49 19.5 °F /  -6.9 °C 4 °F /  -15.6 °C 30.06in /  1017.8hPa Calm     50.2% 0.00in /  0mm 0 W/m2
18:54 19.4 °F /  -7 °C 4.3 °F /  -15.4 °C 30.06in /  1017.8hPa Calm     51% 0.00in /  0mm 0 W/m2
18:59 19.3 °F /  -7.1 °C 4.5 °F /  -15.3 °C 30.06in /  1017.8hPa Calm     52% 0.00in /  0mm 0 W/m2
19:04 19.1 °F /  -7.2 °C 4.5 °F /  -15.3 °C 30.07in /  1018.2hPa Calm     52.3% 0.00in /  0mm 0 W/m2
19:09 18.9 °F /  -7.3 °C 4.6 °F /  -15.2 °C 30.07in /  1018.2hPa Calm     53% 0.00in /  0mm 0 W/m2
19:14 18.7 °F /  -7.4 °C 4.8 °F /  -15.1 °C 30.07in /  1018.2hPa Calm     54% 0.00in /  0mm 0 W/m2
19:19 18.5 °F /  -7.5 °C 4.9 °F /  -15.1 °C 30.07in /  1018.2hPa Calm     54.7% 0.00in /  0mm 0 W/m2
19:24 18.2 °F /  -7.7 °C 4.9 °F /  -15.1 °C 30.08in /  1018.5hPa Calm     55.4% 0.00in /  0mm 0 W/m2
19:29 17.9 °F /  -7.8 °C 4.9 °F /  -15.1 °C 30.08in /  1018.5hPa Calm     56% 0.00in /  0mm 0 W/m2
19:34 17.7 °F /  -7.9 °C 4.3 °F /  -15.4 °C 30.08in /  1018.5hPa Calm     55% 0.00in /  0mm 0 W/m2
19:39 17.5 °F /  -8.1 °C 4.3 °F /  -15.4 °C 30.09in /  1018.8hPa Calm     55.3% 0.00in /  0mm 0 W/m2
19:44 17.4 °F /  -8.1 °C 4.4 °F /  -15.3 °C 30.09in /  1018.8hPa Calm     56% 0.00in /  0mm 0 W/m2
19:49 17.2 °F /  -8.2 °C 4.3 °F /  -15.4 °C 30.08in /  1018.5hPa Calm     56.1% 0.00in /  0mm 0 W/m2
20:09 16.2 °F /  -8.8 °C 4.8 °F /  -15.1 °C 30.09in /  1018.8hPa Calm     60.2% 0.00in /  0mm 0 W/m2
20:14 15.9 °F /  -8.9 °C 4.8 °F /  -15.1 °C 30.09in /  1018.8hPa Calm     61% 0.00in /  0mm 0 W/m2
20:19 15.6 °F /  -9.1 °C 4.5 °F /  -15.3 °C 30.09in /  1018.8hPa Calm     61% 0.00in /  0mm 0 W/m2
20:24 15.3 °F /  -9.3 °C 4.3 °F /  -15.4 °C 30.10in /  1019.2hPa Calm     61% 0.00in /  0mm 0 W/m2
20:29 15.1 °F /  -9.4 °C 4.1 °F /  -15.5 °C 30.10in /  1019.2hPa Calm     61% 0.00in /  0mm 0 W/m2
20:34 14.9 °F /  -9.5 °C 3.9 °F /  -15.6 °C 30.10in /  1019.2hPa Calm     61.2% 0.00in /  0mm 0 W/m2
20:39 14.7 °F /  -9.6 °C 3.7 °F /  -15.7 °C 30.10in /  1019.2hPa Calm     61% 0.00in /  0mm 0 W/m2
20:44 14.5 °F /  -9.7 °C 3.5 °F /  -15.8 °C 30.11in /  1019.5hPa Calm     61% 0.00in /  0mm 0 W/m2
20:49 14.3 °F /  -9.8 °C 3.6 °F /  -15.8 °C 30.11in /  1019.5hPa Calm     61.8% 0.00in /  0mm 0 W/m2
20:54 14.1 °F /  -9.9 °C 3.5 °F /  -15.8 °C 30.11in /  1019.5hPa Calm     62% 0.00in /  0mm 0 W/m2
20:59 13.9 °F /  -10.1 °C 3.7 °F /  -15.7 °C 30.11in /  1019.5hPa Calm     62.9% 0.00in /  0mm 0 W/m2
21:04 13.7 °F /  -10.2 °C 3.5 °F /  -15.8 °C 30.11in /  1019.5hPa Calm     63% 0.00in /  0mm 0 W/m2
21:09 13.6 °F /  -10.2 °C 3.6 °F /  -15.8 °C 30.11in /  1019.5hPa Calm     63.7% 0.00in /  0mm 0 W/m2
21:14 13.4 °F /  -10.3 °C 3.5 °F /  -15.8 °C 30.12in /  1019.9hPa Calm     64% 0.00in /  0mm 0 W/m2
21:19 13.5 °F /  -10.3 °C 3.6 °F /  -15.8 °C 30.12in /  1019.9hPa Calm     64% 0.00in /  0mm 0 W/m2
21:24 13.8 °F /  -10.1 °C 3.8 °F /  -15.7 °C 30.12in /  1019.9hPa Calm     63.7% 0.00in /  0mm 0 W/m2
21:29 14.1 °F /  -9.9 °C 4.1 °F /  -15.5 °C 30.12in /  1019.9hPa Calm     63.8% 0.00in /  0mm 0 W/m2
21:34 14.2 °F /  -9.9 °C 4 °F /  -15.6 °C 30.12in /  1019.9hPa Calm     63% 0.00in /  0mm 0 W/m2
21:39 14.3 °F /  -9.8 °C 4 °F /  -15.6 °C 30.13in /  1020.2hPa Calm     63% 0.00in /  0mm 0 W/m2
21:44 14.3 °F /  -9.8 °C 4 °F /  -15.6 °C 30.13in /  1020.2hPa Calm     63% 0.00in /  0mm 0 W/m2
21:49 14.4 °F /  -9.8 °C 4.1 °F /  -15.5 °C 30.14in /  1020.5hPa Calm     63% 0.00in /  0mm 0 W/m2
21:54 14.6 °F /  -9.7 °C 4.2 °F /  -15.4 °C 30.14in /  1020.5hPa Calm     62.7% 0.00in /  0mm 0 W/m2
21:59 14.8 °F /  -9.6 °C 4.2 °F /  -15.4 °C 30.14in /  1020.5hPa Calm     62% 0.00in /  0mm 0 W/m2
22:04 15 °F /  -9.4 °C 4.4 °F /  -15.3 °C 30.14in /  1020.5hPa Calm     62% 0.00in /  0mm 0 W/m2
22:09 15.2 °F /  -9.3 °C 4.5 °F /  -15.3 °C 30.14in /  1020.5hPa Calm     62% 0.00in /  0mm 0 W/m2
22:14 15.3 °F /  -9.3 °C 4.8 °F /  -15.1 °C 30.14in /  1020.5hPa Calm     62.6% 0.00in /  0mm 0 W/m2
22:19 15.3 °F /  -9.3 °C 5 °F /  -15 °C 30.15in /  1020.9hPa Calm     63% 0.00in /  0mm 0 W/m2
22:24 15.3 °F /  -9.3 °C 5.2 °F /  -14.9 °C 30.15in /  1020.9hPa Calm     63.7% 0.00in /  0mm 0 W/m2
22:29 15.2 °F /  -9.3 °C 5.5 °F /  -14.7 °C 30.15in /  1020.9hPa Calm     64.8% 0.00in /  0mm 0 W/m2
22:34 15.1 °F /  -9.4 °C 5.9 °F /  -14.5 °C 30.15in /  1020.9hPa Calm     66.3% 0.00in /  0mm 0 W/m2
22:39 15.1 °F /  -9.4 °C 6.1 °F /  -14.4 °C 30.15in /  1020.9hPa Calm     67% 0.00in /  0mm 0 W/m2
22:44 15.1 °F /  -9.4 °C 6.1 °F /  -14.4 °C 30.15in /  1020.9hPa Calm     67% 0.00in /  0mm 0 W/m2
22:49 15.1 °F /  -9.4 °C 6 °F /  -14.4 °C 30.15in /  1020.9hPa Calm     66.5% 0.00in /  0mm 0 W/m2
22:54 15.3 °F /  -9.3 °C 5.7 °F /  -14.6 °C 30.16in /  1021.2hPa Calm     65.1% 0.00in /  0mm 0 W/m2
22:59 15.4 °F /  -9.2 °C 5.9 °F /  -14.5 °C 30.16in /  1021.2hPa Calm     65.5% 0.00in /  0mm 0 W/m2
23:00 15.4 °F /  -9.2 °C 6.4 °F /  -14.2 °C 30.16in /  1021.2hPa Calm     67% 0.00in /  0mm 0 W/m2
23:09 15.4 °F /  -9.2 °C 6.1 °F /  -14.4 °C 30.17in /  1021.6hPa Calm     66% 0.00in /  0mm 0 W/m2
23:14 15.4 °F /  -9.2 °C 6.1 °F /  -14.4 °C 30.17in /  1021.6hPa Calm     66% 0.00in /  0mm 0 W/m2
23:19 15.5 °F /  -9.2 °C 6.2 °F /  -14.3 °C 30.17in /  1021.6hPa Calm     66% 0.00in /  0mm 0 W/m2
23:24 15.6 °F /  -9.1 °C 6.3 °F /  -14.3 °C 30.17in /  1021.6hPa Calm     66.2% 0.00in /  0mm 0 W/m2
23:29 15.7 °F /  -9.1 °C 6.7 °F /  -14.1 °C 30.17in /  1021.6hPa Calm     67% 0.00in /  0mm 0 W/m2
23:34 15.6 °F /  -9.1 °C 6.6 °F /  -14.1 °C 30.17in /  1021.6hPa Calm     67% 0.00in /  0mm 0 W/m2
23:39 15.5 °F /  -9.2 °C 6.8 °F /  -14 °C 30.17in /  1021.6hPa Calm     67.9% 0.00in /  0mm 0 W/m2
23:44 15.5 °F /  -9.2 °C 6.8 °F /  -14 °C 30.17in /  1021.6hPa Calm     67.8% 0.00in /  0mm 0 W/m2
23:49 15.5 °F /  -9.2 °C 6.5 °F /  -14.2 °C 30.17in /  1021.6hPa Calm     67.2% 0.00in /  0mm 0 W/m2
23:54 15.4 °F /  -9.2 °C 6.1 °F /  -14.4 °C 30.17in /  1021.6hPa Calm     65.9% 0.00in /  0mm 0 W/m2
23:59 15.5 °F /  -9.2 °C 5.5 °F /  -14.7 °C 30.17in /  1021.6hPa Calm     64.1% 0.00in /  0mm 0 W/m2
Hartford County Weather
Compliments of Weather Underground - 4 mb